sensor_id;sensor_type;location;lat;lon;timestamp;pressure;altitude;pressure_sealevel;temperature;humidity
9187;BME280;7273;48.902;9.410;2023-02-13T00:01:49;99960.41;;;2.23;75.79
9187;BME280;7273;48.902;9.410;2023-02-13T00:04:14;99967.16;;;2.11;75.87
9187;BME280;7273;48.902;9.410;2023-02-13T00:06:39;99972.84;;;2.08;76.01
9187;BME280;7273;48.902;9.410;2023-02-13T00:09:05;99963.13;;;2.15;75.98
9187;BME280;7273;48.902;9.410;2023-02-13T00:11:30;99964.97;;;2.14;75.59
9187;BME280;7273;48.902;9.410;2023-02-13T00:13:57;99965.13;;;2.13;75.56
9187;BME280;7273;48.902;9.410;2023-02-13T00:16:22;99962.81;;;2.10;75.80
9187;BME280;7273;48.902;9.410;2023-02-13T00:18:48;99960.84;;;2.04;75.64
9187;BME280;7273;48.902;9.410;2023-02-13T00:21:13;99970.19;;;2.08;75.35
9187;BME280;7273;48.902;9.410;2023-02-13T00:23:39;99968.38;;;2.00;75.72
9187;BME280;7273;48.902;9.410;2023-02-13T00:26:09;99975.84;;;2.05;75.67
9187;BME280;7273;48.902;9.410;2023-02-13T00:28:35;99968.69;;;2.05;75.72
9187;BME280;7273;48.902;9.410;2023-02-13T00:31:06;99970.34;;;2.06;75.63
9187;BME280;7273;48.902;9.410;2023-02-13T00:33:32;99962.81;;;2.10;76.08
9187;BME280;7273;48.902;9.410;2023-02-13T00:36:04;99955.88;;;2.01;75.28
9187;BME280;7273;48.902;9.410;2023-02-13T00:38:30;99962.84;;;2.02;75.98
9187;BME280;7273;48.902;9.410;2023-02-13T00:40:56;99964.84;;;2.08;75.93
9187;BME280;7273;48.902;9.410;2023-02-13T00:43:21;99969.59;;;2.20;76.09
9187;BME280;7273;48.902;9.410;2023-02-13T00:45:47;99968.50;;;2.07;76.11
9187;BME280;7273;48.902;9.410;2023-02-13T00:48:12;99963.66;;;2.10;75.75
9187;BME280;7273;48.902;9.410;2023-02-13T00:50:38;99963.69;;;2.02;75.73
9187;BME280;7273;48.902;9.410;2023-02-13T00:53:03;99960.97;;;2.10;75.87
9187;BME280;7273;48.902;9.410;2023-02-13T00:55:28;99957.66;;;2.08;76.17
9187;BME280;7273;48.902;9.410;2023-02-13T00:57:54;99949.34;;;2.03;76.28
9187;BME280;7273;48.902;9.410;2023-02-13T01:00:20;99952.84;;;2.04;76.42
9187;BME280;7273;48.902;9.410;2023-02-13T01:02:45;99951.38;;;2.01;76.65
9187;BME280;7273;48.902;9.410;2023-02-13T01:05:12;99954.50;;;2.05;76.96
9187;BME280;7273;48.902;9.410;2023-02-13T01:07:38;99956.84;;;2.00;76.45
9187;BME280;7273;48.902;9.410;2023-02-13T01:10:03;99953.75;;;1.96;76.89
9187;BME280;7273;48.902;9.410;2023-02-13T01:12:29;99961.03;;;2.02;76.72
9187;BME280;7273;48.902;9.410;2023-02-13T01:14:54;99951.69;;;1.98;76.34
9187;BME280;7273;48.902;9.410;2023-02-13T01:17:20;99953.56;;;1.98;76.16
9187;BME280;7273;48.902;9.410;2023-02-13T01:19:45;99952.63;;;1.83;76.07
9187;BME280;7273;48.902;9.410;2023-02-13T01:22:11;99956.63;;;1.79;75.83
9187;BME280;7273;48.902;9.410;2023-02-13T01:24:36;99954.16;;;1.77;75.82
9187;BME280;7273;48.902;9.410;2023-02-13T01:27:01;99955.00;;;1.78;76.36
9187;BME280;7273;48.902;9.410;2023-02-13T01:29:27;99961.47;;;1.75;76.36
9187;BME280;7273;48.902;9.410;2023-02-13T01:31:53;99954.53;;;1.66;76.10
9187;BME280;7273;48.902;9.410;2023-02-13T01:34:18;99962.53;;;1.66;75.78
9187;BME280;7273;48.902;9.410;2023-02-13T01:36:44;99951.03;;;1.66;76.42
9187;BME280;7273;48.902;9.410;2023-02-13T01:39:10;99961.91;;;1.56;76.08
9187;BME280;7273;48.902;9.410;2023-02-13T01:41:36;99958.25;;;1.49;76.08
9187;BME280;7273;48.902;9.410;2023-02-13T01:44:43;99958.56;;;1.54;76.27
9187;BME280;7273;48.902;9.410;2023-02-13T01:46:48;99962.59;;;1.50;76.21
9187;BME280;7273;48.902;9.410;2023-02-13T01:49:22;99952.63;;;1.52;75.76
9187;BME280;7273;48.902;9.410;2023-02-13T01:51:52;99945.41;;;1.53;75.87
9187;BME280;7273;48.902;9.410;2023-02-13T01:54:23;99947.28;;;1.44;75.61
9187;BME280;7273;48.902;9.410;2023-02-13T01:56:58;99945.81;;;1.42;76.06
9187;BME280;7273;48.902;9.410;2023-02-13T01:59:32;99947.13;;;1.46;76.06
9187;BME280;7273;48.902;9.410;2023-02-13T02:01:59;99945.28;;;1.46;76.03
9187;BME280;7273;48.902;9.410;2023-02-13T02:04:29;99939.78;;;1.48;76.37
9187;BME280;7273;48.902;9.410;2023-02-13T02:06:59;99938.81;;;1.41;75.91
9187;BME280;7273;48.902;9.410;2023-02-13T02:09:31;99949.94;;;1.44;76.31
9187;BME280;7273;48.902;9.410;2023-02-13T02:12:12;99940.63;;;1.48;76.60
9187;BME280;7273;48.902;9.410;2023-02-13T02:14:40;99950.13;;;1.51;76.27
9187;BME280;7273;48.902;9.410;2023-02-13T02:17:05;99949.59;;;1.55;76.44
9187;BME280;7273;48.902;9.410;2023-02-13T02:19:42;99950.09;;;1.59;76.50
9187;BME280;7273;48.902;9.410;2023-02-13T02:26:17;99932.94;;;1.53;75.88
9187;BME280;7273;48.902;9.410;2023-02-13T02:36:47;99938.47;;;1.44;76.49
9187;BME280;7273;48.902;9.410;2023-02-13T02:42:36;99925.81;;;1.37;76.96
9187;BME280;7273;48.902;9.410;2023-02-13T02:48:09;99926.47;;;1.39;76.49
9187;BME280;7273;48.902;9.410;2023-02-13T02:51:04;99928.66;;;1.36;76.68
9187;BME280;7273;48.902;9.410;2023-02-13T02:56:07;99918.31;;;1.41;76.77
9187;BME280;7273;48.902;9.410;2023-02-13T02:58:44;99925.50;;;1.41;76.49
9187;BME280;7273;48.902;9.410;2023-02-13T03:01:31;99932.13;;;1.45;76.74
9187;BME280;7273;48.902;9.410;2023-02-13T03:04:43;99934.44;;;1.48;76.49
9187;BME280;7273;48.902;9.410;2023-02-13T03:07:29;99932.31;;;1.43;76.78
9187;BME280;7273;48.902;9.410;2023-02-13T03:10:03;99926.75;;;1.53;76.30
9187;BME280;7273;48.902;9.410;2023-02-13T03:12:55;99931.94;;;1.46;76.47
9187;BME280;7273;48.902;9.410;2023-02-13T03:15:42;99934.13;;;1.42;76.34
9187;BME280;7273;48.902;9.410;2023-02-13T03:18:29;99937.97;;;1.40;76.74
9187;BME280;7273;48.902;9.410;2023-02-13T03:24:27;99945.97;;;1.40;76.34
9187;BME280;7273;48.902;9.410;2023-02-13T03:32:53;99948.06;;;1.14;76.81
9187;BME280;7273;48.902;9.410;2023-02-13T03:41:03;99952.03;;;1.10;76.54
9187;BME280;7273;48.902;9.410;2023-02-13T03:46:18;99948.41;;;1.11;75.95
9187;BME280;7273;48.902;9.410;2023-02-13T03:48:44;99948.06;;;1.14;76.37
9187;BME280;7273;48.902;9.410;2023-02-13T03:51:41;99961.22;;;1.07;76.08
9187;BME280;7273;48.902;9.410;2023-02-13T03:54:42;99955.72;;;1.09;76.06
9187;BME280;7273;48.902;9.410;2023-02-13T03:57:28;99962.22;;;0.98;76.52
9187;BME280;7273;48.902;9.410;2023-02-13T04:00:15;99964.72;;;0.92;75.91
9187;BME280;7273;48.902;9.410;2023-02-13T04:02:51;99971.56;;;0.94;76.34
9187;BME280;7273;48.902;9.410;2023-02-13T04:05:23;99966.38;;;1.01;76.41
9187;BME280;7273;48.902;9.410;2023-02-13T04:07:50;99966.56;;;0.99;76.44
9187;BME280;7273;48.902;9.410;2023-02-13T04:10:16;99972.06;;;0.90;76.28
9187;BME280;7273;48.902;9.410;2023-02-13T04:15:38;99971.22;;;0.89;76.36
9187;BME280;7273;48.902;9.410;2023-02-13T04:20:37;99970.56;;;0.87;76.08
9187;BME280;7273;48.902;9.410;2023-02-13T04:23:05;99975.91;;;0.79;76.60
9187;BME280;7273;48.902;9.410;2023-02-13T04:25:31;99979.06;;;0.83;76.59
9187;BME280;7273;48.902;9.410;2023-02-13T04:27:57;99972.22;;;0.80;76.21
9187;BME280;7273;48.902;9.410;2023-02-13T04:30:23;99982.56;;;0.75;76.49
9187;BME280;7273;48.902;9.410;2023-02-13T04:32:48;99982.06;;;0.80;76.39
9187;BME280;7273;48.902;9.410;2023-02-13T04:35:14;99995.38;;;0.72;76.21
9187;BME280;7273;48.902;9.410;2023-02-13T04:37:39;99980.72;;;0.76;76.69
9187;BME280;7273;48.902;9.410;2023-02-13T04:40:05;99982.41;;;0.77;76.92
9187;BME280;7273;48.902;9.410;2023-02-13T04:42:31;99985.03;;;0.69;76.75
9187;BME280;7273;48.902;9.410;2023-02-13T04:44:56;99979.06;;;0.59;76.20
9187;BME280;7273;48.902;9.410;2023-02-13T04:47:21;99974.22;;;0.62;76.54
9187;BME280;7273;48.902;9.410;2023-02-13T04:49:47;99977.56;;;0.56;76.57
9187;BME280;7273;48.902;9.410;2023-02-13T04:52:12;99973.75;;;0.51;76.81
9187;BME280;7273;48.902;9.410;2023-02-13T04:54:39;99978.06;;;0.52;76.84
9187;BME280;7273;48.902;9.410;2023-02-13T04:57:05;99978.06;;;0.44;76.94
9187;BME280;7273;48.902;9.410;2023-02-13T04:59:30;99984.84;;;0.38;76.94
9187;BME280;7273;48.902;9.410;2023-02-13T05:01:56;99992.66;;;0.40;77.29
9187;BME280;7273;48.902;9.410;2023-02-13T05:04:23;99981.19;;;0.31;77.32
9187;BME280;7273;48.902;9.410;2023-02-13T05:06:49;99979.00;;;0.19;77.37
9187;BME280;7273;48.902;9.410;2023-02-13T05:09:15;99985.16;;;0.19;77.43
9187;BME280;7273;48.902;9.410;2023-02-13T05:11:40;99989.16;;;0.23;77.43
9187;BME280;7273;48.902;9.410;2023-02-13T05:14:06;99987.50;;;0.22;77.19
9187;BME280;7273;48.902;9.410;2023-02-13T05:16:31;99991.16;;;0.21;77.34
9187;BME280;7273;48.902;9.410;2023-02-13T05:18:57;99996.41;;;-0.03;77.24
9187;BME280;7273;48.902;9.410;2023-02-13T05:21:22;99987.78;;;0.03;77.77
9187;BME280;7273;48.902;9.410;2023-02-13T05:24:06;99986.25;;;-0.08;77.78
9187;BME280;7273;48.902;9.410;2023-02-13T05:26:32;99993.44;;;0.00;77.78
9187;BME280;7273;48.902;9.410;2023-02-13T05:28:57;99991.41;;;-0.06;77.44
9187;BME280;7273;48.902;9.410;2023-02-13T05:31:42;99991.91;;;-0.03;77.64
9187;BME280;7273;48.902;9.410;2023-02-13T05:34:07;99983.09;;;-0.11;77.50
9187;BME280;7273;48.902;9.410;2023-02-13T05:36:32;99987.88;;;-0.15;77.55
9187;BME280;7273;48.902;9.410;2023-02-13T05:38:58;99978.06;;;-0.22;77.40
9187;BME280;7273;48.902;9.410;2023-02-13T05:41:24;99981.59;;;-0.14;77.25
9187;BME280;7273;48.902;9.410;2023-02-13T05:43:49;99981.41;;;-0.20;77.46
9187;BME280;7273;48.902;9.410;2023-02-13T05:46:14;99984.41;;;-0.15;77.61
9187;BME280;7273;48.902;9.410;2023-02-13T05:48:40;99986.41;;;-0.17;77.42
9187;BME280;7273;48.902;9.410;2023-02-13T05:51:06;99984.41;;;-0.15;77.42
9187;BME280;7273;48.902;9.410;2023-02-13T05:53:31;99971.25;;;-0.25;77.13
9187;BME280;7273;48.902;9.410;2023-02-13T05:56:00;99981.22;;;-0.27;77.18
9187;BME280;7273;48.902;9.410;2023-02-13T05:58:25;99974.53;;;-0.31;77.36
9187;BME280;7273;48.902;9.410;2023-02-13T06:00:54;99980.41;;;-0.19;77.43
9187;BME280;7273;48.902;9.410;2023-02-13T06:03:20;99984.84;;;-0.28;77.15
9187;BME280;7273;48.902;9.410;2023-02-13T06:05:45;99976.22;;;-0.30;77.42
9187;BME280;7273;48.902;9.410;2023-02-13T06:08:11;99984.22;;;-0.22;77.08
9187;BME280;7273;48.902;9.410;2023-02-13T06:10:36;99979.88;;;-0.23;77.08
9187;BME280;7273;48.902;9.410;2023-02-13T06:13:02;99987.50;;;-0.28;77.31
9187;BME280;7273;48.902;9.410;2023-02-13T06:15:28;99989.69;;;-0.31;77.43
9187;BME280;7273;48.902;9.410;2023-02-13T06:17:53;99988.16;;;-0.34;77.60
9187;BME280;7273;48.902;9.410;2023-02-13T06:20:18;99986.78;;;-0.38;77.63
9187;BME280;7273;48.902;9.410;2023-02-13T06:22:47;99986.84;;;-0.30;77.83
9187;BME280;7273;48.902;9.410;2023-02-13T06:25:13;99986.03;;;-0.22;78.43
9187;BME280;7273;48.902;9.410;2023-02-13T06:27:38;99987.88;;;-0.15;78.22
9187;BME280;7273;48.902;9.410;2023-02-13T06:30:04;99989.22;;;-0.19;78.32
9187;BME280;7273;48.902;9.410;2023-02-13T06:32:30;99992.41;;;-0.15;77.91
9187;BME280;7273;48.902;9.410;2023-02-13T06:34:55;99998.22;;;-0.12;77.91
9187;BME280;7273;48.902;9.410;2023-02-13T06:37:20;99999.88;;;-0.11;77.79
9187;BME280;7273;48.902;9.410;2023-02-13T06:39:46;99989.41;;;-0.12;77.63
9187;BME280;7273;48.902;9.410;2023-02-13T06:42:11;99991.09;;;-0.03;77.48
9187;BME280;7273;48.902;9.410;2023-02-13T06:44:37;99999.75;;;-0.01;77.62
9187;BME280;7273;48.902;9.410;2023-02-13T06:47:02;99994.91;;;-0.06;77.58
9187;BME280;7273;48.902;9.410;2023-02-13T06:49:27;99998.53;;;-0.07;77.21
9187;BME280;7273;48.902;9.410;2023-02-13T06:51:53;100006.38;;;-0.05;77.28
9187;BME280;7273;48.902;9.410;2023-02-13T06:54:18;99999.38;;;-0.06;77.09
9187;BME280;7273;48.902;9.410;2023-02-13T06:56:44;100001.25;;;0.02;77.11
9187;BME280;7273;48.902;9.410;2023-02-13T06:59:09;100001.25;;;0.02;77.23
9187;BME280;7273;48.902;9.410;2023-02-13T07:01:34;100002.41;;;-0.01;76.91
9187;BME280;7273;48.902;9.410;2023-02-13T07:04:00;99998.75;;;0.00;77.30
9187;BME280;7273;48.902;9.410;2023-02-13T07:06:25;100009.06;;;0.03;77.13
9187;BME280;7273;48.902;9.410;2023-02-13T07:08:51;100008.25;;;0.11;77.50
9187;BME280;7273;48.902;9.410;2023-02-13T07:11:21;100006.63;;;0.18;77.34
9187;BME280;7273;48.902;9.410;2023-02-13T07:13:47;100002.63;;;0.22;77.28
9187;BME280;7273;48.902;9.410;2023-02-13T07:16:13;100006.31;;;0.29;77.09
9187;BME280;7273;48.902;9.410;2023-02-13T07:18:39;100005.13;;;0.31;77.53
9187;BME280;7273;48.902;9.410;2023-02-13T07:21:05;100011.97;;;0.34;77.13
9187;BME280;7273;48.902;9.410;2023-02-13T07:23:31;100005.97;;;0.32;76.97
9187;BME280;7273;48.902;9.410;2023-02-13T07:26:00;100013.63;;;0.35;77.13
9187;BME280;7273;48.902;9.410;2023-02-13T07:28:27;100012.31;;;0.39;76.88
9187;BME280;7273;48.902;9.410;2023-02-13T07:30:53;100010.84;;;0.44;77.16
9187;BME280;7273;48.902;9.410;2023-02-13T07:33:19;100017.13;;;0.43;77.26
9187;BME280;7273;48.902;9.410;2023-02-13T07:35:49;100011.00;;;0.51;76.76
9187;BME280;7273;48.902;9.410;2023-02-13T07:38:16;100007.69;;;0.57;77.00
9187;BME280;7273;48.902;9.410;2023-02-13T07:40:42;100013.34;;;0.62;77.43
9187;BME280;7273;48.902;9.410;2023-02-13T07:43:07;100006.84;;;0.56;77.73
9187;BME280;7273;48.902;9.410;2023-02-13T07:45:33;100020.16;;;0.56;77.61
9187;BME280;7273;48.902;9.410;2023-02-13T07:47:58;100016.34;;;0.67;77.87
9187;BME280;7273;48.902;9.410;2023-02-13T07:50:27;100012.16;;;0.64;77.44
9187;BME280;7273;48.902;9.410;2023-02-13T07:52:53;100010.69;;;0.70;77.80
9187;BME280;7273;48.902;9.410;2023-02-13T07:55:19;100017.50;;;0.72;77.58
9187;BME280;7273;48.902;9.410;2023-02-13T07:57:45;100010.34;;;0.81;77.30
9187;BME280;7273;48.902;9.410;2023-02-13T08:00:11;100008.19;;;0.76;77.14
9187;BME280;7273;48.902;9.410;2023-02-13T08:02:37;100011.69;;;0.85;77.28
9187;BME280;7273;48.902;9.410;2023-02-13T08:05:03;100012.50;;;0.93;77.37
9187;BME280;7273;48.902;9.410;2023-02-13T08:07:28;100014.34;;;0.93;77.21
9187;BME280;7273;48.902;9.410;2023-02-13T08:09:54;100015.19;;;1.01;76.92
9187;BME280;7273;48.902;9.410;2023-02-13T08:12:38;100018.47;;;1.03;76.83
9187;BME280;7273;48.902;9.410;2023-02-13T08:15:04;100018.31;;;1.05;76.84
9187;BME280;7273;48.902;9.410;2023-02-13T08:17:29;100018.00;;;1.16;76.97
9187;BME280;7273;48.902;9.410;2023-02-13T08:19:55;100020.97;;;1.21;77.19
9187;BME280;7273;48.902;9.410;2023-02-13T08:22:20;100019.81;;;1.23;76.89
9187;BME280;7273;48.902;9.410;2023-02-13T08:24:46;100021.31;;;1.26;77.28
9187;BME280;7273;48.902;9.410;2023-02-13T08:27:13;100014.78;;;1.28;77.01
9187;BME280;7273;48.902;9.410;2023-02-13T08:29:39;100013.75;;;1.37;77.43
9187;BME280;7273;48.902;9.410;2023-02-13T08:32:04;100016.59;;;1.44;77.26
9187;BME280;7273;48.902;9.410;2023-02-13T08:34:30;100015.56;;;1.53;77.38
9187;BME280;7273;48.902;9.410;2023-02-13T08:36:55;100013.22;;;1.58;76.82
9187;BME280;7273;48.902;9.410;2023-02-13T08:39:21;100017.88;;;1.64;77.25
9187;BME280;7273;48.902;9.410;2023-02-13T08:41:46;100014.53;;;1.70;77.40
9187;BME280;7273;48.902;9.410;2023-02-13T08:44:11;100016.50;;;1.76;76.86
9187;BME280;7273;48.902;9.410;2023-02-13T08:46:37;100016.97;;;1.88;77.41
9187;BME280;7273;48.902;9.410;2023-02-13T08:49:02;100006.59;;;1.93;77.42
9187;BME280;7273;48.902;9.410;2023-02-13T08:51:28;100010.06;;;2.01;77.14
9187;BME280;7273;48.902;9.410;2023-02-13T08:53:53;100008.84;;;2.12;77.50
9187;BME280;7273;48.902;9.410;2023-02-13T08:56:18;100008.09;;;2.26;77.58
9187;BME280;7273;48.902;9.410;2023-02-13T08:58:47;99999.56;;;2.53;77.60
9187;BME280;7273;48.902;9.410;2023-02-13T09:01:13;99994.84;;;2.63;77.31
9187;BME280;7273;48.902;9.410;2023-02-13T09:03:38;100005.03;;;2.82;77.62
9187;BME280;7273;48.902;9.410;2023-02-13T09:06:03;100007.25;;;2.93;77.42
9187;BME280;7273;48.902;9.410;2023-02-13T09:08:29;100005.28;;;3.10;76.83
9187;BME280;7273;48.902;9.410;2023-02-13T09:10:59;100000.00;;;3.82;76.74
9187;BME280;7273;48.902;9.410;2023-02-13T09:13:27;100005.22;;;5.53;76.51
9187;BME280;7273;48.902;9.410;2023-02-13T09:15:52;100001.69;;;7.07;73.76
9187;BME280;7273;48.902;9.410;2023-02-13T09:18:18;100003.47;;;8.42;73.70
9187;BME280;7273;48.902;9.410;2023-02-13T09:20:43;99992.06;;;9.08;73.17
9187;BME280;7273;48.902;9.410;2023-02-13T09:23:09;100008.56;;;10.28;74.14
9187;BME280;7273;48.902;9.410;2023-02-13T09:25:35;100004.13;;;11.92;73.04
9187;BME280;7273;48.902;9.410;2023-02-13T09:28:00;100008.56;;;12.61;73.40
9187;BME280;7273;48.902;9.410;2023-02-13T09:30:26;100003.22;;;13.22;74.30
9187;BME280;7273;48.902;9.410;2023-02-13T09:32:52;100003.50;;;13.92;75.28
9187;BME280;7273;48.902;9.410;2023-02-13T09:35:19;100003.69;;;15.46;74.19
9187;BME280;7273;48.902;9.410;2023-02-13T09:37:46;100000.03;;;15.36;75.80
9187;BME280;7273;48.902;9.410;2023-02-13T09:40:42;100013.19;;;15.75;78.01
9187;BME280;7273;48.902;9.410;2023-02-13T09:43:17;100012.72;;;15.52;80.85
9187;BME280;7273;48.902;9.410;2023-02-13T09:45:47;100008.47;;;16.54;80.19
9187;BME280;7273;48.902;9.410;2023-02-13T09:48:29;100010.63;;;16.47;82.23
9187;BME280;7273;48.902;9.410;2023-02-13T09:50:56;100014.22;;;14.84;87.05
9187;BME280;7273;48.902;9.410;2023-02-13T09:53:24;100006.13;;;15.16;88.20
9187;BME280;7273;48.902;9.410;2023-02-13T09:56:02;99997.44;;;14.06;87.13
9187;BME280;7273;48.902;9.410;2023-02-13T09:58:40;100005.13;;;13.71;85.36
9187;BME280;7273;48.902;9.410;2023-02-13T10:01:30;100001.16;;;12.84;84.43
9187;BME280;7273;48.902;9.410;2023-02-13T10:07:35;100004.84;;;11.76;82.62
9187;BME280;7273;48.902;9.410;2023-02-13T10:12:54;100012.78;;;10.72;79.83
9187;BME280;7273;48.902;9.410;2023-02-13T10:15:36;100012.56;;;10.26;80.20
9187;BME280;7273;48.902;9.410;2023-02-13T10:18:18;100008.13;;;9.71;80.28
9187;BME280;7273;48.902;9.410;2023-02-13T10:20:51;100006.88;;;9.73;78.65
9187;BME280;7273;48.902;9.410;2023-02-13T10:28:27;100002.22;;;9.13;nan
9187;BME280;7273;48.902;9.410;2023-02-13T10:30:55;100005.31;;;9.16;nan
9187;BME280;7273;48.902;9.410;2023-02-13T10:36:11;99997.78;;;8.94;nan
9187;BME280;7273;48.902;9.410;2023-02-13T10:38:43;99993.31;;;8.81;nan
9187;BME280;7273;48.902;9.410;2023-02-13T10:46:45;99988.81;;;8.69;nan
9187;BME280;7273;48.902;9.410;2023-02-13T10:49:40;99985.16;;;8.88;nan
9187;BME280;7273;48.902;9.410;2023-02-13T11:00:49;99974.94;;;8.96;nan
9187;BME280;7273;48.902;9.410;2023-02-13T11:03:24;99960.72;;;9.07;nan
9187;BME280;7273;48.902;9.410;2023-02-13T11:05:51;99961.94;;;9.11;nan
9187;BME280;7273;48.902;9.410;2023-02-13T11:10:42;99960.09;;;9.73;nan
9187;BME280;7273;48.902;9.410;2023-02-13T11:13:28;99955.09;;;10.12;nan
9187;BME280;7273;48.902;9.410;2023-02-13T11:16:08;99946.81;;;10.96;nan
9187;BME280;7273;48.902;9.410;2023-02-13T11:18:40;99943.81;;;11.50;nan
9187;BME280;7273;48.902;9.410;2023-02-13T11:21:22;99946.47;;;12.36;nan
9187;BME280;7273;48.902;9.410;2023-02-13T11:23:59;99943.56;;;12.99;nan
9187;BME280;7273;48.902;9.410;2023-02-13T11:28:54;99949.94;;;13.37;nan
9187;BME280;7273;48.902;9.410;2023-02-13T11:31:28;99947.91;;;12.83;nan
9187;BME280;7273;48.902;9.410;2023-02-13T11:33:55;99957.59;;;12.63;nan
9187;BME280;7273;48.902;9.410;2023-02-13T11:36:30;99942.94;;;12.64;nan
9187;BME280;7273;48.902;9.410;2023-02-13T11:39:02;99952.06;;;13.52;nan
9187;BME280;7273;48.902;9.410;2023-02-13T11:41:30;99951.59;;;14.15;nan
9187;BME280;7273;48.902;9.410;2023-02-13T11:43:59;99945.44;;;14.46;nan
9187;BME280;7273;48.902;9.410;2023-02-13T11:46:49;99939.34;;;14.87;nan
9187;BME280;7273;48.902;9.410;2023-02-13T11:49:26;99942.34;;;15.17;nan
9187;BME280;7273;48.902;9.410;2023-02-13T11:51:55;99942.25;;;15.07;nan
9187;BME280;7273;48.902;9.410;2023-02-13T11:54:24;99952.19;;;14.38;nan
9187;BME280;7273;48.902;9.410;2023-02-13T11:56:59;99943.22;;;14.21;nan
9187;BME280;7273;48.902;9.410;2023-02-13T11:59:30;99935.28;;;14.36;nan
9187;BME280;7273;48.902;9.410;2023-02-13T12:02:42;99939.25;;;14.07;nan
9187;BME280;7273;48.902;9.410;2023-02-13T12:05:21;99938.41;;;13.85;nan
9187;BME280;7273;48.902;9.410;2023-02-13T12:07:48;99941.25;;;13.57;nan
9187;BME280;7273;48.902;9.410;2023-02-13T12:12:52;99936.25;;;13.32;nan
9187;BME280;7273;48.902;9.410;2023-02-13T12:15:21;99934.53;;;13.10;nan
9187;BME280;7273;48.902;9.410;2023-02-13T12:17:58;99936.44;;;13.09;nan
9187;BME280;7273;48.902;9.410;2023-02-13T12:20:27;99934.47;;;13.21;nan
9187;BME280;7273;48.902;9.410;2023-02-13T12:28:15;99930.03;;;12.71;nan
9187;BME280;7273;48.902;9.410;2023-02-13T12:36:45;99915.91;;;12.85;nan
9187;BME280;7273;48.902;9.410;2023-02-13T12:39:32;99917.84;;;12.29;nan
9187;BME280;7273;48.902;9.410;2023-02-13T12:48:25;99915.34;;;12.39;nan
9187;BME280;7273;48.902;9.410;2023-02-13T12:53:24;99911.19;;;12.36;nan
9187;BME280;7273;48.902;9.410;2023-02-13T12:56:12;99905.22;;;12.51;nan
9187;BME280;7273;48.902;9.410;2023-02-13T12:59:00;99903.50;;;12.45;nan
9187;BME280;7273;48.902;9.410;2023-02-13T13:01:57;99905.47;;;12.49;nan
9187;BME280;7273;48.902;9.410;2023-02-13T13:07:31;99895.13;;;12.18;nan
9187;BME280;7273;48.902;9.410;2023-02-13T13:21:22;99892.66;;;12.16;nan
9187;BME280;7273;48.902;9.410;2023-02-13T13:28:46;99886.13;;;12.46;nan
9187;BME280;7273;48.902;9.410;2023-02-13T13:31:13;99893.69;;;12.27;nan
9187;BME280;7273;48.902;9.410;2023-02-13T13:33:42;99889.84;;;12.11;nan
9187;BME280;7273;48.902;9.410;2023-02-13T13:36:26;99890.97;;;12.27;nan
9187;BME280;7273;48.902;9.410;2023-02-13T13:45:02;99887.09;;;12.68;nan
9187;BME280;7273;48.902;9.410;2023-02-13T13:50:05;99890.72;;;12.73;nan
9187;BME280;7273;48.902;9.410;2023-02-13T14:06:22;99875.81;;;12.59;nan
9187;BME280;7273;48.902;9.410;2023-02-13T14:11:32;99874.97;;;12.59;nan
9187;BME280;7273;48.902;9.410;2023-02-13T14:13:59;99874.06;;;12.53;nan
9187;BME280;7273;48.902;9.410;2023-02-13T14:19:03;99871.44;;;12.42;nan
9187;BME280;7273;48.902;9.410;2023-02-13T14:21:30;99876.66;;;12.32;nan
9187;BME280;7273;48.902;9.410;2023-02-13T14:23:56;99882.25;;;12.25;nan
9187;BME280;7273;48.902;9.410;2023-02-13T14:26:35;99879.78;;;12.24;nan
9187;BME280;7273;48.902;9.410;2023-02-13T14:29:16;99880.53;;;12.07;nan
9187;BME280;7273;48.902;9.410;2023-02-13T14:32:00;99870.50;;;12.08;nan
9187;BME280;7273;48.902;9.410;2023-02-13T14:34:27;99877.28;;;11.94;nan
9187;BME280;7273;48.902;9.410;2023-02-13T14:43:46;99884.19;;;11.62;nan
9187;BME280;7273;48.902;9.410;2023-02-13T14:45:53;99879.94;;;11.54;nan
9187;BME280;7273;48.902;9.410;2023-02-13T14:48:23;99882.41;;;11.33;nan
9187;BME280;7273;48.902;9.410;2023-02-13T14:50:53;99880.91;;;11.14;nan
9187;BME280;7273;48.902;9.410;2023-02-13T14:53:31;99887.63;;;11.11;nan
9187;BME280;7273;48.902;9.410;2023-02-13T14:56:05;99892.19;;;10.99;nan
9187;BME280;7273;48.902;9.410;2023-02-13T14:58:35;99881.72;;;11.03;nan
9187;BME280;7273;48.902;9.410;2023-02-13T15:01:16;99881.25;;;11.17;nan
9187;BME280;7273;48.902;9.410;2023-02-13T15:03:55;99888.66;;;10.87;nan
9187;BME280;7273;48.902;9.410;2023-02-13T15:06:26;99872.28;;;10.82;nan
9187;BME280;7273;48.902;9.410;2023-02-13T15:08:55;99879.56;;;10.70;nan
9187;BME280;7273;48.902;9.410;2023-02-13T15:11:38;99872.00;;;10.49;nan
9187;BME280;7273;48.902;9.410;2023-02-13T15:16:58;99875.72;;;10.36;nan
9187;BME280;7273;48.902;9.410;2023-02-13T15:19:26;99873.38;;;10.40;nan
9187;BME280;7273;48.902;9.410;2023-02-13T15:21:57;99860.97;;;10.21;nan
9187;BME280;7273;48.902;9.410;2023-02-13T15:24:24;99869.28;;;10.08;nan
9187;BME280;7273;48.902;9.410;2023-02-13T15:33:03;99867.44;;;9.72;nan
9187;BME280;7273;48.902;9.410;2023-02-13T15:35:31;99863.91;;;9.53;nan
9187;BME280;7273;48.902;9.410;2023-02-13T15:37:57;99864.88;;;9.41;nan
9187;BME280;7273;48.902;9.410;2023-02-13T15:40:29;99867.22;;;9.37;nan
9187;BME280;7273;48.902;9.410;2023-02-13T15:42:56;99868.47;;;9.35;nan
9187;BME280;7273;48.902;9.410;2023-02-13T15:45:24;99863.75;;;9.30;nan
9187;BME280;7273;48.902;9.410;2023-02-13T15:47:51;99862.91;;;9.30;nan
9187;BME280;7273;48.902;9.410;2023-02-13T15:50:33;99859.16;;;9.13;nan
9187;BME280;7273;48.902;9.410;2023-02-13T15:53:02;99861.88;;;8.88;nan
9187;BME280;7273;48.902;9.410;2023-02-13T15:55:31;99867.66;;;8.92;nan
9187;BME280;7273;48.902;9.410;2023-02-13T15:57:59;99866.59;;;8.93;nan
9187;BME280;7273;48.902;9.410;2023-02-13T16:00:32;99864.97;;;8.92;nan
9187;BME280;7273;48.902;9.410;2023-02-13T16:03:00;99865.19;;;8.66;nan
9187;BME280;7273;48.902;9.410;2023-02-13T16:05:27;99866.50;;;8.57;nan
9187;BME280;7273;48.902;9.410;2023-02-13T16:07:58;99870.16;;;8.38;nan
9187;BME280;7273;48.902;9.410;2023-02-13T16:10:32;99865.13;;;8.48;nan
9187;BME280;7273;48.902;9.410;2023-02-13T16:12:59;99868.31;;;8.32;nan
9187;BME280;7273;48.902;9.410;2023-02-13T16:15:30;99866.28;;;8.27;nan
9187;BME280;7273;48.902;9.410;2023-02-13T16:17:57;99863.69;;;8.07;nan
9187;BME280;7273;48.902;9.410;2023-02-13T16:20:26;99863.28;;;8.04;nan
9187;BME280;7273;48.902;9.410;2023-02-13T16:22:54;99871.78;;;8.07;nan
9187;BME280;7273;48.902;9.410;2023-02-13T16:25:26;99868.06;;;8.02;nan
9187;BME280;7273;48.902;9.410;2023-02-13T16:27:55;99862.47;;;7.59;nan
9187;BME280;7273;48.902;9.410;2023-02-13T16:30:39;99856.34;;;7.39;nan